createdAt,value
2023-04-02T00:00:56.547Z,94326.00
2023-04-02T00:01:56.564Z,94328.00
2023-04-02T00:02:56.687Z,94330.00
2023-04-02T00:03:56.583Z,94330.00
2023-04-02T00:04:56.546Z,94328.00
2023-04-02T00:05:56.540Z,94328.00
2023-04-02T00:06:56.520Z,94330.00
2023-04-02T00:07:56.497Z,94332.00
2023-04-02T00:08:56.504Z,94332.00
2023-04-02T00:09:56.523Z,94332.00
2023-04-02T00:10:56.477Z,94330.00
2023-04-02T00:11:56.508Z,94334.00
2023-04-02T00:12:56.501Z,94334.00
2023-04-02T00:13:56.482Z,94334.00
2023-04-02T00:14:56.493Z,94334.00
2023-04-02T00:15:56.508Z,94336.00
2023-04-02T00:16:56.462Z,94334.00
2023-04-02T00:17:56.452Z,94338.00
2023-04-02T00:18:56.427Z,94339.00
2023-04-02T00:19:56.426Z,94336.00
2023-04-02T00:20:56.428Z,94338.00
2023-04-02T00:21:56.443Z,94336.00
2023-04-02T00:22:56.414Z,94336.00
2023-04-02T00:23:56.377Z,94336.00
2023-04-02T00:24:56.407Z,94336.00
2023-04-02T00:25:56.380Z,94338.00
2023-04-02T00:26:56.394Z,94338.00
2023-04-02T00:27:56.374Z,94338.00
2023-04-02T00:28:56.359Z,94339.00
2023-04-02T00:29:56.343Z,94339.00
2023-04-02T00:30:56.375Z,94339.00
2023-04-02T00:31:56.345Z,94339.00
2023-04-02T00:32:56.393Z,94341.00
2023-04-02T00:33:56.342Z,94339.00
2023-04-02T00:34:56.332Z,94341.00
2023-04-02T00:35:56.378Z,94336.00
2023-04-02T00:36:56.317Z,94341.00
2023-04-02T00:37:56.343Z,94343.00
2023-04-02T00:38:56.300Z,94343.00
2023-04-02T00:39:56.283Z,94343.00
2023-04-02T00:40:56.322Z,94339.00
2023-04-02T00:41:56.281Z,94345.00
2023-04-02T00:42:56.283Z,94345.00
2023-04-02T00:43:56.266Z,94341.00
2023-04-02T00:44:56.288Z,94334.00
2023-04-02T00:45:56.273Z,94336.00
2023-04-02T00:46:56.263Z,94339.00
2023-04-02T00:47:56.290Z,94334.00
2023-04-02T00:48:56.238Z,94334.00
2023-04-02T00:49:56.225Z,94334.00
2023-04-02T00:50:56.212Z,94332.00
2023-04-02T00:51:56.207Z,94332.00
2023-04-02T00:52:56.189Z,94332.00
2023-04-02T00:53:56.191Z,94334.00
2023-04-02T00:54:56.169Z,94330.00
2023-04-02T00:55:56.172Z,94336.00
2023-04-02T00:56:56.227Z,94334.00
2023-04-02T00:57:56.192Z,94336.00
2023-04-02T00:58:56.222Z,94332.00
2023-04-02T00:59:56.145Z,94332.00
2023-04-02T01:00:56.155Z,94334.00
2023-04-02T01:01:56.147Z,94332.00
2023-04-02T01:02:56.203Z,94336.00
2023-04-02T01:03:56.130Z,94336.00
2023-04-02T01:04:56.129Z,94336.00
2023-04-02T01:05:56.137Z,94332.00
2023-04-02T01:06:56.081Z,94338.00
2023-04-02T01:07:56.089Z,94338.00
2023-04-02T01:08:56.110Z,94339.00
2023-04-02T01:09:56.101Z,94339.00
2023-04-02T01:10:56.108Z,94339.00
2023-04-02T01:11:56.102Z,94338.00
2023-04-02T01:12:56.062Z,94343.00
2023-04-02T01:13:56.054Z,94341.00
2023-04-02T01:14:56.063Z,94343.00
2023-04-02T01:15:56.116Z,94343.00
2023-04-02T01:16:56.077Z,94343.00
2023-04-02T01:17:56.090Z,94343.00
2023-04-02T01:18:56.111Z,94345.00
2023-04-02T01:19:56.097Z,94347.00
2023-04-02T01:20:56.102Z,94345.00
2023-04-02T01:21:56.111Z,94345.00
2023-04-02T01:22:56.131Z,94345.00
2023-04-02T01:23:56.137Z,94347.00
2023-04-02T01:24:56.146Z,94347.00
2023-04-02T01:25:56.125Z,94347.00
2023-04-02T01:26:56.151Z,94349.00
2023-04-02T01:27:56.165Z,94347.00
2023-04-02T01:28:56.164Z,94349.00
2023-04-02T01:29:56.182Z,94347.00
2023-04-02T01:30:56.255Z,94347.00
2023-04-02T01:31:56.199Z,94345.00
2023-04-02T01:32:56.249Z,94345.00
2023-04-02T01:33:56.229Z,94343.00
2023-04-02T01:34:56.250Z,94343.00
2023-04-02T01:35:56.282Z,94345.00
2023-04-02T01:36:56.257Z,94347.00
2023-04-02T01:37:56.314Z,94349.00
2023-04-02T01:38:56.294Z,94349.00
2023-04-02T01:39:56.308Z,94351.00
2023-04-02T01:40:56.301Z,94353.00
2023-04-02T01:41:56.313Z,94351.00
2023-04-02T01:42:56.319Z,94355.00
2023-04-02T01:43:56.322Z,94353.00
2023-04-02T01:44:56.387Z,94353.00
2023-04-02T01:45:56.343Z,94357.00
2023-04-02T01:46:56.404Z,94355.00
2023-04-02T01:47:56.467Z,94355.00
2023-04-02T01:48:56.396Z,94355.00
2023-04-02T01:49:56.438Z,94357.00
2023-04-02T01:50:56.401Z,94355.00
2023-04-02T01:51:56.457Z,94357.00
2023-04-02T01:52:56.437Z,94357.00
2023-04-02T01:53:56.436Z,94359.00
2023-04-02T01:54:56.472Z,94361.00
2023-04-02T01:55:56.466Z,94361.00
2023-04-02T01:56:56.527Z,94365.00
2023-04-02T01:57:56.483Z,94363.00
2023-04-02T01:58:56.482Z,94365.00
2023-04-02T01:59:56.512Z,94365.00
2023-04-02T02:00:56.555Z,94365.00
2023-04-02T02:01:56.560Z,94367.00
2023-04-02T02:02:56.581Z,94369.00
2023-04-02T02:03:56.554Z,94369.00
2023-04-02T02:04:56.582Z,94377.00
2023-04-02T02:05:56.589Z,94377.00
2023-04-02T02:06:56.625Z,94377.00
2023-04-02T02:07:56.588Z,94379.00
2023-04-02T02:08:56.647Z,94381.00
2023-04-02T02:09:56.643Z,94381.00
2023-04-02T02:10:56.640Z,94381.00
2023-04-02T02:11:56.688Z,94379.00
2023-04-02T02:12:56.683Z,94384.00
2023-04-02T02:13:56.708Z,94383.00
2023-04-02T02:14:56.699Z,94384.00
2023-04-02T02:15:56.717Z,94384.00
2023-04-02T02:16:56.744Z,94386.00
2023-04-02T02:17:56.803Z,94386.00
2023-04-02T02:18:56.773Z,94384.00
2023-04-02T02:19:56.779Z,94384.00
2023-04-02T02:20:56.819Z,94386.00
2023-04-02T02:21:56.796Z,94386.00
2023-04-02T02:22:56.805Z,94386.00
2023-04-02T02:23:56.798Z,94386.00
2023-04-02T02:24:56.860Z,94388.00
2023-04-02T02:25:56.868Z,94390.00
2023-04-02T02:26:56.863Z,94390.00
2023-04-02T02:27:56.868Z,94392.00
2023-04-02T02:28:56.882Z,94392.00
2023-04-02T02:29:56.887Z,94396.00
2023-04-02T02:30:56.899Z,94394.00
2023-04-02T02:31:56.951Z,94396.00
2023-04-02T02:32:57.030Z,94396.00
2023-04-02T02:33:56.956Z,94398.00
2023-04-02T02:34:56.984Z,94400.00
2023-04-02T02:35:57.001Z,94402.00
2023-04-02T02:36:56.986Z,94402.00
2023-04-02T02:37:57.004Z,94404.00
2023-04-02T02:38:57.007Z,94406.00
2023-04-02T02:39:57.000Z,94408.00
2023-04-02T02:40:57.016Z,94410.00
2023-04-02T02:41:57.003Z,94410.00
2023-04-02T02:42:57.025Z,94412.00
2023-04-02T02:43:57.065Z,94414.00
2023-04-02T02:44:57.040Z,94416.00
2023-04-02T02:45:57.126Z,94416.00
2023-04-02T02:46:57.126Z,94418.00
2023-04-02T02:47:57.109Z,94418.00
2023-04-02T02:48:57.117Z,94422.00
2023-04-02T02:50:57.117Z,94422.00
2023-04-02T02:51:57.136Z,94420.00
2023-04-02T02:52:57.130Z,94422.00
2023-04-02T02:53:57.164Z,94418.00
2023-04-02T02:54:57.154Z,94424.00
2023-04-02T02:55:57.163Z,94424.00
2023-04-02T02:56:57.187Z,94424.00
2023-04-02T02:57:57.189Z,94426.00
2023-04-02T02:58:57.236Z,94430.00
2023-04-02T02:59:57.244Z,94430.00
2023-04-02T03:00:57.277Z,94426.00
2023-04-02T03:01:57.300Z,94426.00
2023-04-02T03:02:57.387Z,94430.00
2023-04-02T03:03:57.353Z,94428.00
2023-04-02T03:04:57.276Z,94428.00
2023-04-02T03:05:57.289Z,94432.00
2023-04-02T03:06:57.294Z,94428.00
2023-04-02T03:07:57.323Z,94432.00
2023-04-02T03:08:57.327Z,94432.00
2023-04-02T03:09:57.356Z,94434.00
2023-04-02T03:10:57.358Z,94434.00
2023-04-02T03:11:57.360Z,94434.00
2023-04-02T03:12:57.366Z,94434.00
2023-04-02T03:13:57.393Z,94436.00
2023-04-02T03:14:57.403Z,94438.00
2023-04-02T03:15:57.476Z,94441.00
2023-04-02T03:16:57.425Z,94443.00
2023-04-02T03:17:57.456Z,94445.00
2023-04-02T03:18:57.450Z,94445.00
2023-04-02T03:19:57.477Z,94449.00
2023-04-02T03:20:57.511Z,94451.00
2023-04-02T03:21:57.519Z,94449.00
2023-04-02T03:22:57.514Z,94451.00
2023-04-02T03:23:57.537Z,94453.00
2023-04-02T03:24:57.532Z,94455.00
2023-04-02T03:25:57.579Z,94455.00
2023-04-02T03:26:57.601Z,94457.00
2023-04-02T03:27:57.580Z,94457.00
2023-04-02T03:28:57.625Z,94459.00
2023-04-02T03:29:57.632Z,94457.00
2023-04-02T03:30:57.667Z,94459.00
2023-04-02T03:31:57.638Z,94457.00
2023-04-02T03:32:57.699Z,94459.00
2023-04-02T03:33:57.686Z,94459.00
2023-04-02T03:34:57.703Z,94459.00
2023-04-02T03:35:57.798Z,94459.00
2023-04-02T03:36:57.719Z,94457.00
2023-04-02T03:37:57.762Z,94457.00
2023-04-02T03:38:57.737Z,94459.00
2023-04-02T03:39:57.750Z,94463.00
2023-04-02T03:40:57.803Z,94461.00
2023-04-02T03:41:57.843Z,94461.00
2023-04-02T03:42:57.818Z,94463.00
2023-04-02T03:43:57.853Z,94463.00
2023-04-02T03:44:57.861Z,94463.00
2023-04-02T03:45:57.878Z,94465.00
2023-04-02T03:46:57.902Z,94467.00
2023-04-02T03:47:57.968Z,94467.00
2023-04-02T03:48:57.933Z,94469.00
2023-04-02T03:49:57.944Z,94465.00
2023-04-02T03:50:57.959Z,94467.00
2023-04-02T03:51:57.996Z,94465.00
2023-04-02T03:52:57.989Z,94467.00
2023-04-02T03:53:57.984Z,94467.00
2023-04-02T03:54:57.994Z,94469.00
2023-04-02T03:55:58.001Z,94471.00
2023-04-02T03:56:58.099Z,94467.00
2023-04-02T03:57:58.052Z,94469.00
2023-04-02T03:58:58.076Z,94469.00
2023-04-02T03:59:58.117Z,94471.00
2023-04-02T04:00:58.106Z,94469.00
2023-04-02T04:01:58.128Z,94471.00
2023-04-02T04:02:58.153Z,94471.00
2023-04-02T04:03:58.161Z,94473.00
2023-04-02T04:04:58.130Z,94473.00
2023-04-02T04:05:58.167Z,94473.00
2023-04-02T04:06:58.194Z,94475.00
2023-04-02T04:07:58.188Z,94475.00
2023-04-02T04:08:58.193Z,94479.00
2023-04-02T04:09:58.221Z,94481.00
2023-04-02T04:10:58.265Z,94481.00
2023-04-02T04:11:58.249Z,94483.00
2023-04-02T04:12:58.252Z,94483.00
2023-04-02T04:13:58.302Z,94486.00
2023-04-02T04:14:58.287Z,94485.00
2023-04-02T04:15:58.313Z,94486.00
2023-04-02T04:16:58.377Z,94486.00
2023-04-02T04:17:58.393Z,94488.00
2023-04-02T04:18:58.341Z,94488.00
2023-04-02T04:19:58.382Z,94490.00
2023-04-02T04:20:58.403Z,94492.00
2023-04-02T04:21:58.397Z,94494.00
2023-04-02T04:22:58.440Z,94498.00
2023-04-02T04:23:58.455Z,94496.00
2023-04-02T04:24:58.483Z,94498.00
2023-04-02T04:25:58.498Z,94502.00
2023-04-02T04:26:58.488Z,94506.00
2023-04-02T04:27:58.524Z,94506.00
2023-04-02T04:28:58.575Z,94510.00
2023-04-02T04:29:58.622Z,94510.00
2023-04-02T04:30:58.621Z,94514.00
2023-04-02T04:31:58.691Z,94514.00
2023-04-02T04:32:58.905Z,94518.00
2023-04-02T04:33:58.656Z,94516.00
2023-04-02T04:34:58.699Z,94520.00
2023-04-02T04:35:58.773Z,94520.00
2023-04-02T04:36:58.746Z,94522.00
2023-04-02T04:37:58.712Z,94522.00
2023-04-02T04:38:58.744Z,94524.00
2023-04-02T04:39:58.778Z,94526.00
2023-04-02T04:40:58.751Z,94526.00
2023-04-02T04:41:58.801Z,94528.00
2023-04-02T04:42:58.802Z,94528.00
2023-04-02T04:43:58.875Z,94532.00
2023-04-02T04:44:58.842Z,94532.00
2023-04-02T04:45:58.889Z,94532.00
2023-04-02T04:46:58.897Z,94535.00
2023-04-02T04:47:58.919Z,94533.00
2023-04-02T04:48:58.916Z,94533.00
2023-04-02T04:49:58.901Z,94533.00
2023-04-02T04:50:58.947Z,94537.00
2023-04-02T04:51:58.926Z,94539.00
2023-04-02T04:52:58.956Z,94539.00
2023-04-02T04:53:58.973Z,94539.00
2023-04-02T04:54:58.946Z,94541.00
2023-04-02T04:56:06.025Z,94539.00
2023-04-02T04:57:00.026Z,94541.00
2023-04-02T04:57:58.945Z,94537.00
2023-04-02T04:58:58.977Z,94539.00
2023-04-02T04:59:58.939Z,94541.00
2023-04-02T05:00:58.956Z,94541.00
2023-04-02T05:01:58.921Z,94545.00
2023-04-02T05:02:58.972Z,94547.00
2023-04-02T05:03:58.919Z,94545.00
2023-04-02T05:04:58.980Z,94547.00
2023-04-02T05:05:58.918Z,94547.00
2023-04-02T05:06:58.904Z,94547.00
2023-04-02T05:07:59.840Z,94553.00
2023-04-02T05:08:58.902Z,94551.00
2023-04-02T05:09:58.880Z,94551.00
2023-04-02T05:10:58.906Z,94549.00
2023-04-02T05:11:58.886Z,94553.00
2023-04-02T05:12:58.904Z,94553.00
2023-04-02T05:13:58.879Z,94551.00
2023-04-02T05:14:58.860Z,94551.00
2023-04-02T05:16:01.206Z,94551.00
2023-04-02T05:16:59.010Z,94553.00
2023-04-02T05:17:59.052Z,94553.00
2023-04-02T05:18:59.067Z,94553.00
2023-04-02T05:19:59.063Z,94555.00
2023-04-02T05:20:59.077Z,94555.00
2023-04-02T05:21:59.056Z,94555.00
2023-04-02T05:22:59.087Z,94557.00
2023-04-02T05:23:59.101Z,94555.00
2023-04-02T05:24:59.127Z,94557.00
2023-04-02T05:25:59.121Z,94557.00
2023-04-02T05:26:59.157Z,94559.00
2023-04-02T05:27:59.178Z,94559.00
2023-04-02T05:28:59.178Z,94561.00
2023-04-02T05:29:59.175Z,94561.00
2023-04-02T05:30:59.228Z,94561.00
2023-04-02T05:31:59.205Z,94565.00
2023-04-02T05:32:59.249Z,94563.00
2023-04-02T05:33:59.243Z,94565.00
2023-04-02T05:34:59.247Z,94565.00
2023-04-02T05:35:59.259Z,94567.00
2023-04-02T05:36:59.299Z,94571.00
2023-04-02T05:37:59.296Z,94575.00
2023-04-02T05:38:59.330Z,94577.00
2023-04-02T05:39:59.331Z,94577.00
2023-04-02T05:40:59.300Z,94575.00
2023-04-02T05:41:59.314Z,94580.00
2023-04-02T05:42:59.335Z,94580.00
2023-04-02T05:43:59.328Z,94580.00
2023-04-02T05:44:59.357Z,94582.00
2023-04-02T05:45:59.359Z,94582.00
2023-04-02T05:46:59.421Z,94582.00
2023-04-02T05:47:59.395Z,94586.00
2023-04-02T05:48:59.396Z,94586.00
2023-04-02T05:49:59.400Z,94584.00
2023-04-02T05:50:59.422Z,94588.00
2023-04-02T05:51:59.440Z,94588.00
2023-04-02T05:52:59.462Z,94590.00
2023-04-02T05:53:59.460Z,94592.00
2023-04-02T05:54:59.463Z,94590.00
2023-04-02T05:55:59.494Z,94592.00
2023-04-02T05:56:59.524Z,94596.00
2023-04-02T05:58:21.298Z,94596.00
2023-04-02T05:59:00.507Z,94596.00
2023-04-02T05:59:59.496Z,94600.00
2023-04-02T06:00:59.491Z,94602.00
2023-04-02T06:01:59.525Z,94600.00
2023-04-02T06:02:59.540Z,94598.00
2023-04-02T06:03:59.501Z,94600.00
2023-04-02T06:04:59.465Z,94600.00
2023-04-02T06:05:59.481Z,94600.00
2023-04-02T06:06:59.469Z,94600.00
2023-04-02T06:07:59.438Z,94602.00
2023-04-02T06:08:59.420Z,94600.00
2023-04-02T06:09:59.430Z,94602.00
2023-04-02T06:10:59.403Z,94598.00
2023-04-02T06:11:59.417Z,94596.00
2023-04-02T06:12:59.426Z,94598.00
2023-04-02T06:13:59.380Z,94598.00
2023-04-02T06:14:59.387Z,94600.00
2023-04-02T06:15:59.474Z,94598.00
2023-04-02T06:16:59.429Z,94604.00
2023-04-02T06:17:59.424Z,94602.00
2023-04-02T06:18:59.347Z,94606.00
2023-04-02T06:19:59.398Z,94606.00
2023-04-02T06:20:59.368Z,94606.00
2023-04-02T06:21:59.340Z,94608.00
2023-04-02T06:22:59.337Z,94606.00
2023-04-02T06:23:59.341Z,94604.00
2023-04-02T06:24:59.367Z,94606.00
2023-04-02T06:25:59.337Z,94608.00
2023-04-02T06:26:59.336Z,94610.00
2023-04-02T06:27:59.329Z,94608.00
2023-04-02T06:28:59.329Z,94608.00
2023-04-02T06:29:59.287Z,94608.00
2023-04-02T06:30:59.335Z,94612.00
2023-04-02T06:31:59.297Z,94612.00
2023-04-02T06:32:59.364Z,94616.00
2023-04-02T06:33:59.307Z,94618.00
2023-04-02T06:34:59.314Z,94620.00
2023-04-02T06:35:59.366Z,94620.00
2023-04-02T06:36:59.340Z,94622.00
2023-04-02T06:37:59.355Z,94624.00
2023-04-02T06:38:59.370Z,94622.00
2023-04-02T06:39:59.404Z,94626.00
2023-04-02T06:40:59.374Z,94626.00
2023-04-02T06:41:59.454Z,94624.00
2023-04-02T06:42:59.410Z,94633.00
2023-04-02T06:43:59.387Z,94624.00
2023-04-02T06:44:59.386Z,94635.00
2023-04-02T06:45:59.417Z,94635.00
2023-04-02T06:46:59.408Z,94633.00
2023-04-02T06:47:59.403Z,94635.00
2023-04-02T06:48:59.408Z,94635.00
2023-04-02T06:49:59.398Z,94633.00
2023-04-02T06:50:59.435Z,94633.00
2023-04-02T06:51:59.412Z,94633.00
2023-04-02T06:52:59.441Z,94637.00
2023-04-02T06:53:59.426Z,94635.00
2023-04-02T06:54:59.484Z,94637.00
2023-04-02T06:55:59.490Z,94635.00
2023-04-02T06:56:59.476Z,94637.00
2023-04-02T06:57:59.487Z,94635.00
2023-04-02T06:58:59.558Z,94637.00
2023-04-02T06:59:59.579Z,94635.00
2023-04-02T07:00:59.610Z,94633.00
2023-04-02T07:01:59.751Z,94637.00
2023-04-02T07:02:59.788Z,94637.00
2023-04-02T07:03:59.808Z,94635.00
2023-04-02T07:04:59.911Z,94637.00
2023-04-02T07:05:59.943Z,94635.00
2023-04-02T07:06:59.982Z,94637.00
2023-04-02T07:07:59.988Z,94637.00
2023-04-02T07:09:00.042Z,94637.00
2023-04-02T07:10:00.086Z,94639.00
2023-04-02T07:11:00.124Z,94637.00
2023-04-02T07:12:00.145Z,94635.00
2023-04-02T07:13:00.233Z,94637.00
2023-04-02T07:14:00.278Z,94626.00
2023-04-02T07:15:00.375Z,94626.00
2023-04-02T07:16:00.410Z,94624.00
2023-04-02T07:17:00.440Z,94633.00
2023-04-02T07:18:00.505Z,94633.00
2023-04-02T07:19:00.542Z,94633.00
2023-04-02T07:20:00.571Z,94626.00
2023-04-02T07:21:00.605Z,94624.00
2023-04-02T07:22:00.628Z,94624.00
2023-04-02T07:23:00.695Z,94626.00
2023-04-02T07:24:00.707Z,94624.00
2023-04-02T07:25:00.752Z,94626.00
2023-04-02T07:26:00.785Z,94624.00
2023-04-02T07:27:00.820Z,94622.00
2023-04-02T07:28:00.838Z,94622.00
2023-04-02T07:29:00.837Z,94624.00
2023-04-02T07:30:00.855Z,94622.00
2023-04-02T07:31:00.890Z,94633.00
2023-04-02T07:32:00.904Z,94624.00
2023-04-02T07:33:00.975Z,94626.00
2023-04-02T07:34:00.929Z,94624.00
2023-04-02T07:35:00.962Z,94633.00
2023-04-02T07:36:00.964Z,94626.00
2023-04-02T07:37:00.975Z,94624.00
2023-04-02T07:38:00.972Z,94624.00
2023-04-02T07:39:00.994Z,94622.00
2023-04-02T07:40:00.975Z,94620.00
2023-04-02T07:41:00.970Z,94626.00
2023-04-02T07:42:00.967Z,94624.00
2023-04-02T07:43:00.998Z,94626.00
2023-04-02T07:44:00.994Z,94633.00
2023-04-02T07:45:00.974Z,94637.00
2023-04-02T07:46:01.014Z,94639.00
2023-04-02T07:47:01.129Z,94639.00
2023-04-02T07:48:01.024Z,94639.00
2023-04-02T07:49:01.002Z,94639.00
2023-04-02T07:50:01.011Z,94639.00
2023-04-02T07:51:01.054Z,94643.00
2023-04-02T07:52:01.079Z,94647.00
2023-04-02T07:53:01.084Z,94645.00
2023-04-02T07:54:01.075Z,94643.00
2023-04-02T07:55:01.120Z,94643.00
2023-04-02T07:56:01.178Z,94643.00
2023-04-02T07:57:01.260Z,94645.00
2023-04-02T07:58:01.309Z,94643.00
2023-04-02T07:59:01.383Z,94643.00
2023-04-02T08:00:01.424Z,94641.00
2023-04-02T08:01:01.477Z,94643.00
2023-04-02T08:02:01.583Z,94643.00
2023-04-02T08:03:01.660Z,94643.00
2023-04-02T08:04:01.672Z,94643.00
2023-04-02T08:05:01.726Z,94643.00
2023-04-02T08:06:01.733Z,94645.00
2023-04-02T08:07:01.815Z,94643.00
2023-04-02T08:08:01.900Z,94643.00
2023-04-02T08:09:01.945Z,94645.00
2023-04-02T08:10:01.976Z,94645.00
2023-04-02T08:11:02.058Z,94643.00
2023-04-02T08:12:02.140Z,94647.00
2023-04-02T08:13:02.179Z,94643.00
2023-04-02T08:14:02.251Z,94645.00
2023-04-02T08:15:02.310Z,94649.00
2023-04-02T08:16:02.351Z,94647.00
2023-04-02T08:17:02.520Z,94651.00
2023-04-02T08:18:02.555Z,94649.00
2023-04-02T08:19:02.545Z,94645.00
2023-04-02T08:20:02.593Z,94647.00
2023-04-02T08:21:02.705Z,94647.00
2023-04-02T08:22:02.734Z,94647.00
2023-04-02T08:23:02.811Z,94649.00
2023-04-02T08:24:02.863Z,94651.00
2023-04-02T08:25:02.892Z,94651.00
2023-04-02T08:26:02.967Z,94653.00
2023-04-02T08:27:03.020Z,94651.00
2023-04-02T08:28:03.103Z,94651.00
2023-04-02T08:29:03.173Z,94653.00
2023-04-02T08:30:03.228Z,94651.00
2023-04-02T08:31:03.309Z,94651.00
2023-04-02T08:32:03.359Z,94655.00
2023-04-02T08:33:03.447Z,94653.00
2023-04-02T08:34:03.441Z,94653.00
2023-04-02T08:35:03.529Z,94651.00
2023-04-02T08:36:03.628Z,94651.00
2023-04-02T08:37:03.613Z,94649.00
2023-04-02T08:38:03.658Z,94649.00
2023-04-02T08:39:03.766Z,94649.00
2023-04-02T08:40:03.782Z,94645.00
2023-04-02T08:41:03.927Z,94643.00
2023-04-02T08:42:03.888Z,94647.00
2023-04-02T08:43:03.991Z,94643.00
2023-04-02T08:44:04.040Z,94641.00
2023-04-02T08:45:13.745Z,94641.00
2023-04-02T08:46:05.323Z,94643.00
2023-04-02T08:47:04.166Z,94639.00
2023-04-02T08:48:05.792Z,94639.00
2023-04-02T08:49:04.025Z,94637.00
2023-04-02T08:50:04.027Z,94637.00
2023-04-02T08:51:04.031Z,94635.00
2023-04-02T08:52:04.007Z,94635.00
2023-04-02T08:53:04.007Z,94635.00
2023-04-02T08:54:04.056Z,94635.00
2023-04-02T08:55:04.145Z,94635.00
2023-04-02T08:56:04.136Z,94635.00
2023-04-02T08:57:04.212Z,94637.00
2023-04-02T08:58:04.294Z,94633.00
2023-04-02T08:59:04.405Z,94626.00
2023-04-02T09:00:04.363Z,94633.00
2023-04-02T09:01:04.455Z,94633.00
2023-04-02T09:02:04.565Z,94633.00
2023-04-02T09:03:04.595Z,94624.00
2023-04-02T09:04:04.586Z,94626.00
2023-04-02T09:05:04.737Z,94622.00
2023-04-02T09:06:04.688Z,94622.00
2023-04-02T09:07:04.726Z,94624.00
2023-04-02T09:08:04.775Z,94622.00
2023-04-02T09:09:04.786Z,94620.00
2023-04-02T09:10:04.834Z,94620.00
2023-04-02T09:11:04.878Z,94622.00
2023-04-02T09:12:04.906Z,94620.00
2023-04-02T09:13:04.979Z,94622.00
2023-04-02T09:14:04.999Z,94622.00
2023-04-02T09:15:05.070Z,94622.00
2023-04-02T09:16:05.189Z,94620.00
2023-04-02T09:17:05.159Z,94620.00
2023-04-02T09:18:05.269Z,94626.00
2023-04-02T09:19:05.294Z,94622.00
2023-04-02T09:20:05.355Z,94624.00
2023-04-02T09:21:05.394Z,94620.00
2023-04-02T09:22:05.494Z,94622.00
2023-04-02T09:23:50.340Z,94624.00
2023-04-02T09:24:50.312Z,94622.00
2023-04-02T09:26:02.971Z,94622.00
2023-04-02T09:26:51.307Z,94622.00
2023-04-02T09:27:50.295Z,94622.00
2023-04-02T09:28:50.302Z,94622.00
2023-04-02T09:29:50.317Z,94624.00
2023-04-02T09:30:50.277Z,94622.00
2023-04-02T09:31:50.254Z,94633.00
2023-04-02T09:32:50.277Z,94624.00
2023-04-02T09:33:50.264Z,94622.00
2023-04-02T09:34:50.247Z,94626.00
2023-04-02T09:35:50.285Z,94624.00
2023-04-02T09:36:50.287Z,94620.00
2023-04-02T09:37:50.343Z,94620.00
2023-04-02T09:38:50.435Z,94618.00
2023-04-02T09:39:50.443Z,94618.00
2023-04-02T09:40:50.535Z,94618.00
2023-04-02T09:42:02.754Z,94616.00
2023-04-02T09:42:51.539Z,94618.00
2023-04-02T09:43:50.557Z,94620.00
2023-04-02T09:44:50.533Z,94620.00
2023-04-02T09:45:50.515Z,94622.00
2023-04-02T09:46:50.532Z,94620.00
2023-04-02T09:47:50.545Z,94620.00
2023-04-02T09:48:50.506Z,94620.00
2023-04-02T09:49:50.467Z,94620.00
2023-04-02T09:50:50.520Z,94620.00
2023-04-02T09:51:50.490Z,94622.00
2023-04-02T09:52:50.515Z,94624.00
2023-04-02T09:53:50.575Z,94622.00
2023-04-02T09:54:50.634Z,94624.00
2023-04-02T09:55:50.676Z,94626.00
2023-04-02T09:56:50.758Z,94626.00
2023-04-02T09:57:50.763Z,94626.00
2023-04-02T09:58:50.798Z,94633.00
2023-04-02T09:59:50.882Z,94626.00
2023-04-02T10:00:50.961Z,94633.00
2023-04-02T10:01:51.953Z,94637.00
2023-04-02T10:02:51.073Z,94637.00
2023-04-02T10:03:51.121Z,94637.00
2023-04-02T10:04:51.171Z,94637.00
2023-04-02T10:05:51.204Z,94637.00
2023-04-02T10:06:51.284Z,94637.00
2023-04-02T10:07:51.355Z,94637.00
2023-04-02T10:08:51.410Z,94637.00
2023-04-02T10:09:51.453Z,94633.00
2023-04-02T10:10:51.524Z,94633.00
2023-04-02T10:11:51.581Z,94637.00
2023-04-02T10:12:51.617Z,94633.00
2023-04-02T10:13:51.665Z,94633.00
2023-04-02T10:14:51.726Z,94633.00
2023-04-02T10:15:51.811Z,94626.00
2023-04-02T10:16:51.946Z,94620.00
2023-04-02T10:17:52.490Z,94620.00
2023-04-02T10:18:51.978Z,94622.00
2023-04-02T10:19:52.046Z,94622.00
2023-04-02T10:20:52.094Z,94622.00
2023-04-02T10:21:52.160Z,94620.00
2023-04-02T10:22:52.233Z,94624.00
2023-04-02T10:23:52.307Z,94620.00
2023-04-02T10:24:52.364Z,94620.00
2023-04-02T10:25:52.432Z,94620.00
2023-04-02T10:26:52.496Z,94618.00
2023-04-02T10:27:52.535Z,94618.00
2023-04-02T10:28:52.590Z,94618.00
2023-04-02T10:29:52.659Z,94620.00
2023-04-02T10:30:52.777Z,94622.00
2023-04-02T10:31:52.790Z,94622.00
2023-04-02T10:32:52.873Z,94618.00
2023-04-02T10:33:52.902Z,94622.00
2023-04-02T10:34:52.935Z,94624.00
2023-04-02T10:35:53.050Z,94626.00
2023-04-02T10:36:53.083Z,94626.00
2023-04-02T10:37:53.115Z,94626.00
2023-04-02T10:38:53.198Z,94624.00
2023-04-02T10:39:53.220Z,94635.00
2023-04-02T10:40:55.217Z,94633.00
2023-04-02T10:41:53.297Z,94624.00
2023-04-02T10:42:53.295Z,94624.00
2023-04-02T10:43:53.314Z,94624.00
2023-04-02T10:44:53.286Z,94624.00
2023-04-02T10:45:53.325Z,94626.00
2023-04-02T10:46:53.269Z,94626.00
2023-04-02T10:47:53.295Z,94633.00
2023-04-02T10:48:53.242Z,94633.00
2023-04-02T10:49:53.287Z,94633.00
2023-04-02T10:50:53.237Z,94635.00
2023-04-02T10:51:53.233Z,94624.00
2023-04-02T10:52:55.008Z,94626.00
2023-04-02T10:53:53.223Z,94635.00
2023-04-02T10:54:53.209Z,94635.00
2023-04-02T10:55:53.224Z,94635.00
2023-04-02T10:56:53.355Z,94635.00
2023-04-02T10:57:53.236Z,94637.00
2023-04-02T10:58:53.863Z,94639.00
2023-04-02T10:59:53.199Z,94637.00
2023-04-02T11:00:53.185Z,94637.00
2023-04-02T11:01:53.190Z,94637.00
2023-04-02T11:02:53.314Z,94637.00
2023-04-02T11:03:53.263Z,94637.00
2023-04-02T11:04:53.952Z,94639.00
2023-04-02T11:05:53.147Z,94641.00
2023-04-02T11:07:03.514Z,94639.00
2023-04-02T11:07:54.129Z,94639.00
2023-04-02T11:08:53.125Z,94641.00
2023-04-02T11:09:53.111Z,94639.00
2023-04-02T11:10:53.107Z,94645.00
2023-04-02T11:11:53.071Z,94643.00
2023-04-02T11:12:53.120Z,94645.00
2023-04-02T11:13:53.113Z,94645.00
2023-04-02T11:14:53.080Z,94647.00
2023-04-02T11:15:53.117Z,94649.00
2023-04-02T11:16:53.081Z,94651.00
2023-04-02T11:17:53.085Z,94653.00
2023-04-02T11:18:53.077Z,94651.00
2023-04-02T11:19:53.051Z,94651.00
2023-04-02T11:20:53.033Z,94653.00
2023-04-02T11:21:59.444Z,94657.00
2023-04-02T11:22:54.036Z,94657.00
2023-04-02T11:23:53.003Z,94659.00
2023-04-02T11:24:53.011Z,94659.00
2023-04-02T11:25:53.012Z,94659.00
2023-04-02T11:26:52.990Z,94657.00
2023-04-02T11:27:53.012Z,94659.00
2023-04-02T11:28:52.999Z,94659.00
2023-04-02T11:29:53.020Z,94659.00
2023-04-02T11:30:53.011Z,94663.00
2023-04-02T11:31:53.052Z,94659.00
2023-04-02T11:32:52.997Z,94661.00
2023-04-02T11:33:52.959Z,94665.00
2023-04-02T11:35:03.445Z,94665.00
2023-04-02T11:35:53.967Z,94663.00
2023-04-02T11:36:52.985Z,94667.00
2023-04-02T11:37:52.956Z,94669.00
2023-04-02T11:38:53.092Z,94669.00
2023-04-02T11:39:52.913Z,94669.00
2023-04-02T11:40:52.902Z,94669.00
2023-04-02T11:41:52.907Z,94669.00
2023-04-02T11:42:52.889Z,94669.00
2023-04-02T11:43:52.912Z,94671.00
2023-04-02T11:44:52.916Z,94673.00
2023-04-02T11:45:53.604Z,94669.00
2023-04-02T11:46:52.967Z,94675.00